createdAt,value
2018-11-11T00:00:12.631Z,237.37
2018-11-11T00:02:41.759Z,238.47
2018-11-11T00:05:11.262Z,240.97
2018-11-11T00:07:40.548Z,260.03
2018-11-11T00:10:09.343Z,257.13
2018-11-11T00:12:38.643Z,260.53
2018-11-11T00:15:10.604Z,246.67
2018-11-11T00:17:39.795Z,256.53
2018-11-11T00:20:09.672Z,253.07
2018-11-11T00:22:38.713Z,252.53
2018-11-11T00:25:08.157Z,243.70
2018-11-11T00:27:37.706Z,245.70
2018-11-11T00:30:08.684Z,251.10
2018-11-11T00:32:37.433Z,275.37
2018-11-11T00:35:06.616Z,249.97
2018-11-11T00:37:35.337Z,248.30
2018-11-11T00:40:04.201Z,249.93
2018-11-11T00:42:32.862Z,255.00
2018-11-11T00:45:01.564Z,250.67
2018-11-11T00:47:30.608Z,255.47
2018-11-11T00:49:59.263Z,268.57
2018-11-11T00:52:28.048Z,266.87
2018-11-11T00:54:56.748Z,287.23
2018-11-11T00:57:25.520Z,238.23
2018-11-11T00:59:54.182Z,232.23
2018-11-11T01:02:22.869Z,238.87
2018-11-11T01:04:51.700Z,243.93
2018-11-11T01:07:20.331Z,244.47
2018-11-11T01:09:49.027Z,228.23
2018-11-11T01:12:17.710Z,226.00
2018-11-11T01:14:46.400Z,238.13
2018-11-11T01:17:15.092Z,242.33
2018-11-11T01:19:43.893Z,241.97
2018-11-11T01:22:12.548Z,270.07
2018-11-11T01:24:41.258Z,234.00
2018-11-11T01:27:10.043Z,235.13
2018-11-11T01:29:38.752Z,230.93
2018-11-11T01:32:07.486Z,254.20
2018-11-11T01:34:36.335Z,239.73
2018-11-11T01:37:05.072Z,245.03
2018-11-11T01:39:34.308Z,228.10
2018-11-11T01:42:03.032Z,228.50
2018-11-11T01:44:31.767Z,221.07
2018-11-11T01:47:00.403Z,227.93
2018-11-11T01:49:29.129Z,229.03
2018-11-11T01:51:57.908Z,221.47
2018-11-11T01:54:26.628Z,228.40
2018-11-11T01:56:55.380Z,217.57
2018-11-11T01:59:24.064Z,215.23
2018-11-11T02:01:52.787Z,219.73
2018-11-11T02:04:21.542Z,218.67
2018-11-11T02:06:50.563Z,231.47
2018-11-11T02:09:19.239Z,239.83
2018-11-11T02:11:48.117Z,236.23
2018-11-11T02:14:16.895Z,244.20
2018-11-11T02:16:45.573Z,261.13
2018-11-11T02:19:14.460Z,245.80
2018-11-11T02:21:43.342Z,249.80
2018-11-11T02:24:11.944Z,268.20
2018-11-11T02:26:40.822Z,259.53
2018-11-11T02:29:09.718Z,265.33
2018-11-11T02:31:38.509Z,261.43
2018-11-11T02:34:07.337Z,251.83
2018-11-11T02:36:36.013Z,236.40
2018-11-11T02:39:06.111Z,245.97
2018-11-11T02:41:34.883Z,240.83
2018-11-11T02:44:03.605Z,235.17
2018-11-11T02:46:32.370Z,251.17
2018-11-11T02:49:01.158Z,235.87
2018-11-11T02:51:29.939Z,228.77
2018-11-11T02:53:58.674Z,236.90
2018-11-11T02:56:27.320Z,216.73
2018-11-11T02:58:56.095Z,232.23
2018-11-11T03:01:24.796Z,235.97
2018-11-11T03:03:53.604Z,237.40
2018-11-11T03:06:22.461Z,226.53
2018-11-11T03:08:51.254Z,215.17
2018-11-11T03:11:19.927Z,227.63
2018-11-11T03:13:48.717Z,215.83
2018-11-11T03:16:17.373Z,224.43
2018-11-11T03:18:46.060Z,195.37
2018-11-11T03:21:14.871Z,216.60
2018-11-11T03:23:43.688Z,205.33
2018-11-11T03:26:12.407Z,202.33
2018-11-11T03:28:41.013Z,217.67
2018-11-11T03:31:09.778Z,204.93
2018-11-11T03:33:39.012Z,191.67
2018-11-11T03:36:07.806Z,202.50
2018-11-11T03:38:36.474Z,195.63
2018-11-11T03:41:05.376Z,196.70
2018-11-11T03:43:34.247Z,205.63
2018-11-11T03:46:02.961Z,212.23
2018-11-11T03:48:31.758Z,194.87
2018-11-11T03:51:00.545Z,203.70
2018-11-11T03:53:29.314Z,192.67
2018-11-11T03:55:57.956Z,188.77
2018-11-11T03:58:26.727Z,179.60
2018-11-11T04:00:55.385Z,187.30
2018-11-11T04:03:24.064Z,190.37
2018-11-11T04:05:52.948Z,193.57
2018-11-11T04:08:21.748Z,194.40
2018-11-11T04:10:50.391Z,200.20
2018-11-11T04:13:19.207Z,201.17
2018-11-11T04:15:47.882Z,181.57
2018-11-11T04:18:16.569Z,191.10
2018-11-11T04:20:45.284Z,180.37
2018-11-11T04:23:13.921Z,193.57
2018-11-11T04:25:42.728Z,188.97
2018-11-11T04:28:11.411Z,184.23
2018-11-11T04:30:40.156Z,175.43
2018-11-11T04:33:08.768Z,188.53
2018-11-11T04:35:37.588Z,182.27
2018-11-11T04:38:06.303Z,194.17
2018-11-11T04:40:34.908Z,187.33
2018-11-11T04:43:03.546Z,184.47
2018-11-11T04:45:32.274Z,185.83
2018-11-11T04:48:00.881Z,200.00
2018-11-11T04:50:29.659Z,175.50
2018-11-11T04:52:58.344Z,175.23
2018-11-11T04:55:27.188Z,175.13
2018-11-11T04:57:55.843Z,179.20
2018-11-11T05:00:24.626Z,197.13
2018-11-11T05:02:53.305Z,182.33
2018-11-11T05:05:22.193Z,186.97
2018-11-11T05:07:50.872Z,186.47
2018-11-11T05:10:19.625Z,171.73
2018-11-11T05:12:48.346Z,179.07
2018-11-11T05:15:17.104Z,167.70
2018-11-11T05:17:45.844Z,159.03
2018-11-11T05:20:14.519Z,151.60
2018-11-11T05:22:43.765Z,161.03
2018-11-11T05:25:14.212Z,162.80
2018-11-11T05:27:43.558Z,144.00
2018-11-11T05:30:13.248Z,160.70
2018-11-11T05:32:41.920Z,165.47
2018-11-11T05:35:11.441Z,165.47
2018-11-11T05:37:40.841Z,154.90
2018-11-11T05:40:10.656Z,173.87
2018-11-11T05:42:39.900Z,170.17
2018-11-11T05:45:10.282Z,175.00
2018-11-11T05:47:39.588Z,157.87
2018-11-11T05:50:10.116Z,161.63
2018-11-11T05:52:39.142Z,149.57
2018-11-11T05:55:08.467Z,174.10
2018-11-11T05:57:37.460Z,168.17
2018-11-11T06:00:08.275Z,155.87
2018-11-11T06:02:37.047Z,175.87
2018-11-11T06:05:07.704Z,159.57
2018-11-11T06:07:36.372Z,153.60
2018-11-11T06:10:06.502Z,148.50
2018-11-11T06:12:35.228Z,152.73
2018-11-11T06:15:04.205Z,140.90
2018-11-11T06:17:33.251Z,163.77
2018-11-11T06:20:01.888Z,152.47
2018-11-11T06:22:30.792Z,148.53
2018-11-11T06:24:59.475Z,160.67
2018-11-11T06:27:28.173Z,135.87
2018-11-11T06:29:56.958Z,143.57
2018-11-11T06:32:25.620Z,150.93
2018-11-11T06:34:54.296Z,148.77
2018-11-11T06:37:23.129Z,148.67
2018-11-11T06:39:51.779Z,150.40
2018-11-11T06:42:20.532Z,150.10
2018-11-11T06:44:49.367Z,146.50
2018-11-11T06:47:18.035Z,144.60
2018-11-11T06:49:46.711Z,144.40
2018-11-11T06:52:15.728Z,154.53
2018-11-11T06:54:44.518Z,155.27
2018-11-11T06:57:13.169Z,153.43
2018-11-11T06:59:42.560Z,168.17
2018-11-11T07:02:11.268Z,151.30
2018-11-11T07:04:39.944Z,163.57
2018-11-11T07:07:08.765Z,152.23
2018-11-11T07:09:37.417Z,148.80
2018-11-11T07:12:06.336Z,151.40
2018-11-11T07:14:35.135Z,146.97
2018-11-11T07:17:03.805Z,155.20
2018-11-11T07:19:32.520Z,148.73
2018-11-11T07:22:01.477Z,162.07
2018-11-11T07:24:30.188Z,139.30
2018-11-11T07:26:58.821Z,165.43
2018-11-11T07:29:27.842Z,165.50
2018-11-11T07:31:56.732Z,152.17
2018-11-11T07:34:25.395Z,174.97
2018-11-11T07:36:54.079Z,176.43
2018-11-11T07:39:22.896Z,168.73
2018-11-11T07:41:51.591Z,157.07
2018-11-11T07:44:20.287Z,151.30
2018-11-11T07:46:49.048Z,172.70
2018-11-11T07:49:17.744Z,154.00
2018-11-11T07:51:46.521Z,164.27
2018-11-11T07:54:15.405Z,160.93
2018-11-11T07:56:44.309Z,160.07
2018-11-11T07:59:13.071Z,173.20
2018-11-11T08:01:41.850Z,161.33
2018-11-11T08:04:10.880Z,158.37
2018-11-11T08:06:39.824Z,126.80
2018-11-11T08:09:08.443Z,156.27
2018-11-11T08:11:48.802Z,148.20
2018-11-11T08:14:17.567Z,144.27
2018-11-11T08:16:46.275Z,143.63
2018-11-11T08:19:16.084Z,135.97
2018-11-11T08:21:44.743Z,145.07
2018-11-11T08:24:13.448Z,149.17
2018-11-11T08:26:42.241Z,136.73
2018-11-11T08:29:11.028Z,147.20
2018-11-11T08:31:40.429Z,138.30
2018-11-11T08:34:09.308Z,156.53
2018-11-11T08:36:38.132Z,127.03
2018-11-11T08:39:10.879Z,127.90
2018-11-11T08:41:41.393Z,138.33
2018-11-11T08:44:11.322Z,135.13
2018-11-11T08:46:41.676Z,162.63
2018-11-11T08:49:11.463Z,150.80
2018-11-11T08:51:40.161Z,146.37
2018-11-11T08:54:09.176Z,139.47
2018-11-11T08:56:38.244Z,140.97
2018-11-11T08:59:07.309Z,163.60
2018-11-11T09:01:35.989Z,135.33
2018-11-11T09:04:05.449Z,144.43
2018-11-11T09:06:34.083Z,136.20
2018-11-11T09:09:02.872Z,138.60
2018-11-11T09:11:31.753Z,145.60
2018-11-11T09:14:00.588Z,123.50
2018-11-11T09:16:29.260Z,136.97
2018-11-11T09:18:58.026Z,145.30
2018-11-11T09:21:26.870Z,131.40
2018-11-11T09:23:55.700Z,129.47
2018-11-11T09:26:24.425Z,132.73
2018-11-11T09:28:53.127Z,124.83
2018-11-11T09:31:21.761Z,131.03
2018-11-11T09:33:50.560Z,127.33
2018-11-11T09:36:19.232Z,130.90
2018-11-11T09:38:48.079Z,138.50
2018-11-11T09:41:16.706Z,136.13
2018-11-11T09:43:45.389Z,128.00
2018-11-11T09:46:14.295Z,121.57
2018-11-11T09:48:43.012Z,118.37
2018-11-11T09:51:11.822Z,110.57
2018-11-11T09:53:40.453Z,116.53
2018-11-11T09:56:09.148Z,128.33
2018-11-11T09:58:37.957Z,114.57
2018-11-11T10:01:06.586Z,117.63
2018-11-11T10:03:39.431Z,113.07
2018-11-11T10:06:25.633Z,109.77
2018-11-11T10:21:58.656Z,111.47
2018-11-11T10:24:32.645Z,114.97
2018-11-11T10:27:06.688Z,119.57
2018-11-11T10:29:51.285Z,121.47
2018-11-11T10:32:39.707Z,119.07
2018-11-11T10:35:18.375Z,111.40
2018-11-11T10:37:52.528Z,111.87
2018-11-11T10:40:28.417Z,109.67
2018-11-11T10:44:03.681Z,106.10
2018-11-11T10:46:37.578Z,107.13
2018-11-11T10:49:07.968Z,103.77
2018-11-11T10:51:37.168Z,104.07
2018-11-11T10:54:06.450Z,109.30
2018-11-11T10:56:35.149Z,113.80
2018-11-11T10:59:04.118Z,111.00
2018-11-11T11:01:38.024Z,111.67
2018-11-11T11:04:07.950Z,114.03
2018-11-11T11:07:13.605Z,112.67
2018-11-11T11:09:42.369Z,115.27
2018-11-11T11:12:11.113Z,106.83
2018-11-11T11:14:40.065Z,118.77
2018-11-11T11:17:08.775Z,119.13
2018-11-11T11:19:37.640Z,109.67
2018-11-11T11:22:07.038Z,109.13
2018-11-11T11:24:40.214Z,119.30
2018-11-11T11:27:09.128Z,114.17
2018-11-11T11:29:38.125Z,117.50
2018-11-11T11:32:06.880Z,108.20
2018-11-11T11:34:35.802Z,117.10
2018-11-11T11:37:04.505Z,118.03
2018-11-11T11:39:34.392Z,118.93
2018-11-11T11:42:03.140Z,114.20
2018-11-11T11:44:32.060Z,121.27
2018-11-11T11:47:00.732Z,114.93
2018-11-11T11:49:29.468Z,113.80
2018-11-11T11:51:58.281Z,111.90
2018-11-11T11:54:27.011Z,121.47
2018-11-11T11:56:55.989Z,118.60
2018-11-11T11:59:24.716Z,115.83
2018-11-11T12:01:53.547Z,117.97
2018-11-11T12:04:22.376Z,123.00
2018-11-11T12:06:51.147Z,119.93
2018-11-11T12:09:19.875Z,131.00
2018-11-11T12:11:48.619Z,126.30
2018-11-11T12:14:17.490Z,124.03
2018-11-11T12:16:46.561Z,135.70
2018-11-11T12:19:15.675Z,114.70
2018-11-11T12:21:44.505Z,124.53
2018-11-11T12:24:13.377Z,119.57
2018-11-11T12:26:42.090Z,118.57
2018-11-11T12:29:10.850Z,123.27
2018-11-11T12:31:39.747Z,118.70
2018-11-11T12:34:08.476Z,125.00
2018-11-11T12:36:37.323Z,127.13
2018-11-11T12:39:09.333Z,119.30
2018-11-11T12:41:38.273Z,116.87
2018-11-11T12:44:07.474Z,118.47
2018-11-11T12:46:36.282Z,118.67
2018-11-11T12:49:05.054Z,120.10
2018-11-11T12:51:33.762Z,124.13
2018-11-11T12:54:02.553Z,118.93
2018-11-11T12:56:31.172Z,115.47
2018-11-11T12:58:59.861Z,106.70
2018-11-11T13:01:28.797Z,117.70
2018-11-11T13:03:57.556Z,79.50
2018-11-11T13:06:26.224Z,103.53
2018-11-11T13:08:54.974Z,108.63
2018-11-11T13:11:23.670Z,113.27
2018-11-11T13:13:52.461Z,105.77
2018-11-11T13:16:21.046Z,97.90
2018-11-11T13:18:51.976Z,119.10
2018-11-11T13:21:20.604Z,102.77
2018-11-11T13:23:49.294Z,106.23
2018-11-11T13:26:18.035Z,106.50
2018-11-11T13:28:46.836Z,111.00
2018-11-11T13:31:15.973Z,108.23
2018-11-11T13:33:44.682Z,106.77
2018-11-11T13:36:13.445Z,109.77
2018-11-11T13:38:42.334Z,118.90
2018-11-11T13:41:11.083Z,120.70
2018-11-11T13:43:39.897Z,122.83
2018-11-11T13:46:08.612Z,114.57
2018-11-11T13:48:37.360Z,106.07
2018-11-11T13:51:06.270Z,115.60
2018-11-11T13:53:35.128Z,114.17
2018-11-11T13:56:04.041Z,106.23
2018-11-11T13:58:32.828Z,120.97
2018-11-11T14:01:01.548Z,113.50
2018-11-11T14:03:30.402Z,106.43
2018-11-11T14:05:59.095Z,124.63
2018-11-11T14:08:27.824Z,133.80
2018-11-11T14:10:56.603Z,122.53
2018-11-11T14:13:25.549Z,127.10
2018-11-11T14:15:54.517Z,131.67
2018-11-11T14:18:23.229Z,109.90
2018-11-11T14:20:52.034Z,89.77
2018-11-11T14:23:20.864Z,106.80
2018-11-11T14:25:49.556Z,121.77
2018-11-11T14:28:18.502Z,127.90
2018-11-11T14:30:47.282Z,127.10
2018-11-11T14:33:16.039Z,135.50
2018-11-11T14:35:44.810Z,133.23
2018-11-11T14:38:13.873Z,128.37
2018-11-11T14:40:42.560Z,117.90
2018-11-11T14:43:11.625Z,128.67
2018-11-11T14:45:40.325Z,130.37
2018-11-11T14:48:09.194Z,130.93
2018-11-11T14:50:37.911Z,133.97
2018-11-11T14:53:06.588Z,128.60
2018-11-11T14:55:35.560Z,137.83
2018-11-11T14:58:04.330Z,132.97
2018-11-11T15:00:34.358Z,132.60
2018-11-11T15:03:10.220Z,125.37
2018-11-11T15:05:39.096Z,132.77
2018-11-11T15:08:08.295Z,133.07
2018-11-11T15:10:37.004Z,137.63
2018-11-11T15:13:06.519Z,126.57
2018-11-11T15:15:35.325Z,149.80
2018-11-11T15:18:04.355Z,155.27
2018-11-11T15:20:33.642Z,127.57
2018-11-11T15:23:02.452Z,135.47
2018-11-11T15:25:31.763Z,123.10
2018-11-11T15:28:00.351Z,125.83
2018-11-11T15:30:32.634Z,143.57
2018-11-11T15:33:02.001Z,143.20
2018-11-11T15:35:30.773Z,129.73
2018-11-11T15:37:59.679Z,136.17
2018-11-11T15:40:29.825Z,127.17
2018-11-11T15:42:58.720Z,142.80
2018-11-11T15:45:30.664Z,133.37
2018-11-11T15:47:59.719Z,130.13
2018-11-11T15:50:30.077Z,132.87
2018-11-11T15:53:01.234Z,127.40
2018-11-11T15:55:31.712Z,133.60
2018-11-11T15:58:00.641Z,128.57
2018-11-11T16:00:30.667Z,139.63
2018-11-11T16:02:59.432Z,136.43
2018-11-11T16:05:28.200Z,131.33
2018-11-11T16:07:58.063Z,133.70
2018-11-11T16:10:27.871Z,136.87
2018-11-11T16:12:57.387Z,134.77
2018-11-11T16:15:35.904Z,136.30
2018-11-11T16:18:06.313Z,155.73
2018-11-11T16:20:34.989Z,140.53
2018-11-11T16:23:04.996Z,155.40
2018-11-11T16:25:33.940Z,154.60
2018-11-11T16:28:02.807Z,155.17
2018-11-11T16:30:34.122Z,167.87
2018-11-11T16:33:03.069Z,162.63
2018-11-11T16:35:32.539Z,171.17
2018-11-11T16:38:02.148Z,170.00
2018-11-11T16:40:32.730Z,173.10
2018-11-11T16:43:01.948Z,162.97
2018-11-11T16:45:31.989Z,174.10
2018-11-11T16:48:01.014Z,153.30
2018-11-11T16:50:32.276Z,158.03
2018-11-11T16:53:02.439Z,155.43
2018-11-11T16:55:32.134Z,148.90
2018-11-11T16:58:01.349Z,145.50
2018-11-11T17:00:31.823Z,138.37
2018-11-11T17:03:02.059Z,140.77
2018-11-11T17:05:33.231Z,141.37
2018-11-11T17:08:02.288Z,143.83
2018-11-11T17:10:32.575Z,135.30
2018-11-11T17:13:04.544Z,143.33
2018-11-11T17:15:33.904Z,132.53
2018-11-11T17:18:02.917Z,136.73
2018-11-11T17:20:32.192Z,133.10
2018-11-11T17:23:03.553Z,140.50
2018-11-11T17:25:32.464Z,122.90
2018-11-11T17:28:01.385Z,140.50
2018-11-11T17:30:31.552Z,137.27
2018-11-11T17:33:01.282Z,152.40
2018-11-11T17:35:30.140Z,140.20
2018-11-11T17:37:59.162Z,150.57
2018-11-11T17:40:29.973Z,149.37
2018-11-11T17:42:59.558Z,142.10
2018-11-11T17:45:28.774Z,146.77
2018-11-11T17:47:58.178Z,134.87
2018-11-11T17:50:28.572Z,145.67
2018-11-11T17:52:57.913Z,135.00
2018-11-11T17:55:27.767Z,141.97
2018-11-11T17:57:56.360Z,153.17
2018-11-11T18:00:26.490Z,147.70
2018-11-11T18:04:20.202Z,143.40
2018-11-11T18:06:49.131Z,146.47
2018-11-11T18:09:18.203Z,141.03
2018-11-11T18:11:47.075Z,152.90
2018-11-11T18:14:16.378Z,153.37
2018-11-11T18:16:46.309Z,151.23
2018-11-11T18:19:15.302Z,151.77
2018-11-11T18:21:45.490Z,155.53
2018-11-11T18:24:14.985Z,153.87
2018-11-11T18:26:44.440Z,155.67
2018-11-11T18:29:14.380Z,156.20
2018-11-11T18:31:43.779Z,148.70
2018-11-11T18:34:13.154Z,149.53
2018-11-11T18:36:42.398Z,156.47
2018-11-11T18:39:12.862Z,154.90
2018-11-11T18:41:42.707Z,150.70
2018-11-11T18:44:12.160Z,152.77
2018-11-11T18:48:05.695Z,156.00
2018-11-11T18:50:34.962Z,165.70
2018-11-11T18:53:04.499Z,150.43
2018-11-11T18:55:33.763Z,151.87
2018-11-11T18:58:03.691Z,150.50
2018-11-11T19:01:57.388Z,151.37
2018-11-11T19:04:26.605Z,150.17
2018-11-11T19:06:55.814Z,153.70
2018-11-11T19:09:25.188Z,147.60
2018-11-11T19:11:54.324Z,159.30
2018-11-11T19:14:23.560Z,160.60
2018-11-11T19:16:52.600Z,152.80
2018-11-11T19:19:21.688Z,155.03
2018-11-11T19:21:50.758Z,164.53
2018-11-11T19:24:19.983Z,151.83
2018-11-11T19:26:49.000Z,157.43
2018-11-11T19:29:18.531Z,160.30
2018-11-11T19:31:47.748Z,175.00
2018-11-11T19:34:17.187Z,161.07
2018-11-11T19:36:46.267Z,159.63
2018-11-11T19:39:15.079Z,161.53
2018-11-11T19:41:44.096Z,154.87
2018-11-11T19:44:13.258Z,165.83
2018-11-11T19:46:42.352Z,147.43
2018-11-11T19:49:11.055Z,154.30
2018-11-11T19:51:40.017Z,155.13
2018-11-11T19:54:09.458Z,161.40
2018-11-11T19:56:38.427Z,165.77
2018-11-11T19:59:07.685Z,173.97
2018-11-11T20:01:36.730Z,169.43
2018-11-11T20:04:06.510Z,174.30
2018-11-11T20:06:35.573Z,166.30
2018-11-11T20:09:06.724Z,173.40
2018-11-11T20:11:35.604Z,171.30
2018-11-11T20:15:31.096Z,173.67
2018-11-11T20:18:00.308Z,173.07
2018-11-11T20:20:31.877Z,169.97
2018-11-11T20:23:00.765Z,181.80
2018-11-11T20:25:30.757Z,180.23
2018-11-11T20:28:00.569Z,176.07
2018-11-11T20:30:31.105Z,172.30
2018-11-11T20:33:00.210Z,174.87
2018-11-11T20:35:30.287Z,175.90
2018-11-11T20:37:59.165Z,173.27
2018-11-11T20:40:28.678Z,183.03
2018-11-11T20:42:58.102Z,177.97
2018-11-11T20:45:34.572Z,178.37
2018-11-11T20:48:04.368Z,179.13
2018-11-11T20:50:33.952Z,178.93
2018-11-11T20:53:04.244Z,180.70
2018-11-11T20:55:32.968Z,185.93
2018-11-11T20:58:01.969Z,181.93
2018-11-11T21:00:33.053Z,185.07
2018-11-11T21:03:02.019Z,172.17
2018-11-11T21:05:31.190Z,185.63
2018-11-11T21:07:59.881Z,184.57
2018-11-11T21:10:29.285Z,208.37
2018-11-11T21:12:58.515Z,206.00
2018-11-11T21:15:28.533Z,186.97
2018-11-11T21:17:57.274Z,192.70
2018-11-11T21:20:27.583Z,193.37
2018-11-11T21:22:56.378Z,205.50
2018-11-11T21:25:25.538Z,184.23
2018-11-11T21:27:54.261Z,200.27
2018-11-11T21:30:24.633Z,208.87
2018-11-11T21:32:53.317Z,204.37
2018-11-11T21:35:22.057Z,227.57
2018-11-11T21:37:50.999Z,212.90
2018-11-11T21:40:21.172Z,216.23
2018-11-11T21:42:50.487Z,248.43
2018-11-11T21:45:20.570Z,219.77
2018-11-11T21:47:49.387Z,263.07
2018-11-11T21:50:19.503Z,244.00
2018-11-11T21:53:00.024Z,239.83
2018-11-11T21:55:28.635Z,240.13
2018-11-11T21:57:57.429Z,242.40
2018-11-11T22:00:26.124Z,231.77
2018-11-11T22:02:54.829Z,233.30
2018-11-11T22:05:23.618Z,233.40
2018-11-11T22:07:52.259Z,240.90
2018-11-11T22:10:21.008Z,238.80
2018-11-11T22:12:49.691Z,244.37
2018-11-11T22:15:18.433Z,244.20
2018-11-11T22:17:47.223Z,246.03
2018-11-11T22:20:16.003Z,243.77
2018-11-11T22:22:44.795Z,250.17
2018-11-11T22:25:13.455Z,231.83
2018-11-11T22:27:42.241Z,226.93
2018-11-11T22:30:12.172Z,195.17
2018-11-11T22:32:40.943Z,216.77
2018-11-11T22:35:10.992Z,206.27
2018-11-11T22:37:39.868Z,204.27
2018-11-11T22:40:10.867Z,210.60
2018-11-11T22:42:39.478Z,216.00
2018-11-11T22:46:39.002Z,216.83
2018-11-11T22:49:08.159Z,226.20
2018-11-11T22:51:37.121Z,280.70
2018-11-11T22:54:06.361Z,242.30
2018-11-11T22:56:35.217Z,239.63
2018-11-11T22:59:03.883Z,250.47
2018-11-11T23:01:32.548Z,219.60
2018-11-11T23:04:01.346Z,231.80
2018-11-11T23:06:30.135Z,211.20
2018-11-11T23:08:58.803Z,227.50
2018-11-11T23:11:27.554Z,213.20
2018-11-11T23:13:56.276Z,218.27
2018-11-11T23:16:24.959Z,198.27
2018-11-11T23:18:53.744Z,206.47
2018-11-11T23:21:22.421Z,199.47
2018-11-11T23:23:51.140Z,209.67
2018-11-11T23:26:19.821Z,223.20
2018-11-11T23:28:48.633Z,218.07
2018-11-11T23:31:17.283Z,222.50
2018-11-11T23:33:45.955Z,229.20
2018-11-11T23:36:14.741Z,227.97
2018-11-11T23:38:43.454Z,254.20
2018-11-11T23:41:12.335Z,263.13
2018-11-11T23:43:41.003Z,239.13
2018-11-11T23:46:09.700Z,258.90
2018-11-11T23:48:38.626Z,237.77
2018-11-11T23:51:07.361Z,248.60
2018-11-11T23:53:36.060Z,238.93
2018-11-11T23:56:05.265Z,243.27
2018-11-11T23:58:33.921Z,247.67
